AAL7510 VHHH-VHHX
Flight info
| Callsign | AAL7510 |
|---|---|
| Flight time | N/A |
| Altitude | 6000 |
| Route | RAMEN DCT CH/N0271F050 |
| Aircraft | A310/H-SDFGHIM1RTUWXY/LB1 |
Departure
| Time | 2026-05-05 05:18 |
|---|---|
| Airport | Hong Kong International Airport (VHHH) |
Arrival
| Time | N/A |
|---|---|
| Airport | Hong Kong International Airport Kai Tak (VHHX) |
| Time | Latitude | Longitude | Altitude | Speed | Heading |
|---|---|---|---|---|---|
| 2026-05-05 05:17 | 22.32989 | 113.95696 | 1355 ft | 216 kts | 70° |
| 2026-05-05 05:18 | 22.33479 | 113.97321 | 1742 ft | 245 kts | 71° |
| 2026-05-05 05:18 | 22.34082 | 113.99173 | 2112 ft | 268 kts | 69° |
| 2026-05-05 05:18 | 22.34598 | 114.00975 | 2407 ft | 243 kts | 83° |
| 2026-05-05 05:18 | 22.34427 | 114.02887 | 2494 ft | 270 kts | 106° |
| 2026-05-05 05:19 | 22.33852 | 114.04931 | 2958 ft | 302 kts | 106° |
| 2026-05-05 05:19 | 22.33383 | 114.07147 | 3037 ft | 297 kts | 99° |
| 2026-05-05 05:19 | 22.32837 | 114.09237 | 2764 ft | 283 kts | 107° |
| 2026-05-05 05:19 | 22.32152 | 114.11229 | 2132 ft | 285 kts | 116° |
| 2026-05-05 05:20 | 22.31389 | 114.13070 | 2192 ft | 257 kts | 114° |
| 2026-05-05 05:20 | 22.30779 | 114.14872 | 1665 ft | 254 kts | 88° |
| 2026-05-05 05:20 | 22.31374 | 114.16522 | 1160 ft | 239 kts | 43° |
| 2026-05-05 05:20 | 22.32523 | 114.17750 | 752 ft | 225 kts | 57° |
| 2026-05-05 05:21 | 22.32745 | 114.19202 | 325 ft | 187 kts | 135° |
| 2026-05-05 05:21 | 22.31968 | 114.19861 | 723 ft | 288 kts | 131° |
| 2026-05-05 05:21 | 22.30637 | 114.21403 | 786 ft | 275 kts | 131° |
| 2026-05-05 05:21 | 22.29346 | 114.22770 | 1164 ft | 245 kts | 135° |
| 2026-05-05 05:22 | 22.28111 | 114.23851 | 1283 ft | 215 kts | 145° |
| 2026-05-05 05:22 | 22.26765 | 114.24536 | 1681 ft | 221 kts | 166° |
| 2026-05-05 05:22 | 22.25249 | 114.24470 | 2543 ft | 221 kts | 206° |
| 2026-05-05 05:22 | 22.24050 | 114.23354 | 2964 ft | 252 kts | 227° |
| 2026-05-05 05:23 | 22.23033 | 114.21594 | 2717 ft | 308 kts | 254° |
| 2026-05-05 05:23 | 22.23012 | 114.19218 | 2355 ft | 328 kts | 284° |
| 2026-05-05 05:23 | 22.24159 | 114.17127 | 2261 ft | 322 kts | 319° |
| 2026-05-05 05:23 | 22.26138 | 114.16186 | 1921 ft | 311 kts | 358° |
| 2026-05-05 05:24 | 22.28218 | 114.15857 | 1892 ft | 297 kts | 347° |
| 2026-05-05 05:24 | 22.30174 | 114.15423 | 1630 ft | 282 kts | 3° |
| 2026-05-05 05:24 | 22.31664 | 114.16333 | 1339 ft | 246 kts | 52° |
| 2026-05-05 05:24 | 22.32755 | 114.17714 | 834 ft | 230 kts | 68° |
| 2026-05-05 05:25 | 22.32634 | 114.19201 | 106 ft | 205 kts | 141° |